createdAt,value
2019-03-03T13:08:59.861Z,100239.06
2019-03-03T13:11:31.788Z,100243.16
2019-03-03T13:14:05.034Z,100244.02
2019-03-03T13:16:38.270Z,100243.86
2019-03-03T13:19:11.528Z,100242.75
2019-03-03T13:21:44.767Z,100231.58
2019-03-03T13:24:18.024Z,100238.15
2019-03-03T13:26:51.265Z,100222.14
2019-03-03T13:29:24.545Z,100221.25
2019-03-03T13:31:57.762Z,100221.30
2019-03-03T13:34:31.149Z,100216.95
2019-03-03T13:37:04.381Z,100204.77
2019-03-03T13:39:37.633Z,100207.70
2019-03-03T13:42:10.888Z,100207.99
2019-03-03T13:44:44.139Z,100197.84
2019-03-03T13:47:17.382Z,100209.02
2019-03-03T13:49:50.621Z,100186.79
2019-03-03T13:52:23.865Z,100183.13
2019-03-03T13:54:57.113Z,100190.34
2019-03-03T13:57:30.346Z,100190.22
2019-03-03T14:00:06.004Z,100186.22
2019-03-03T14:02:39.236Z,100184.84
2019-03-03T14:05:12.499Z,100170.94
2019-03-03T14:07:45.736Z,100179.95
2019-03-03T14:10:18.983Z,100167.72
2019-03-03T14:12:52.214Z,100169.33
2019-03-03T14:15:25.502Z,100158.33
2019-03-03T14:17:58.741Z,100152.63
2019-03-03T14:20:31.993Z,100145.18
2019-03-03T14:23:05.225Z,100149.44
2019-03-03T14:25:38.490Z,100142.83
2019-03-03T14:28:11.725Z,100137.12
2019-03-03T14:30:44.967Z,100136.73
2019-03-03T14:33:18.200Z,100136.73
2019-03-03T14:35:51.436Z,100140.23
2019-03-03T14:38:24.671Z,100125.16
2019-03-03T14:40:57.937Z,100127.08
2019-03-03T14:43:31.173Z,100112.20
2019-03-03T14:46:04.421Z,100108.11
2019-03-03T14:48:37.653Z,100109.36
2019-03-03T14:51:10.903Z,100099.88
2019-03-03T14:53:44.146Z,100099.98
2019-03-03T14:56:17.401Z,100097.55
2019-03-03T14:58:50.633Z,100084.13
2019-03-03T15:01:23.894Z,100083.23
2019-03-03T15:03:57.129Z,100084.99
2019-03-03T15:06:30.377Z,100084.22
2019-03-03T15:09:04.093Z,100064.89
2019-03-03T15:11:38.968Z,100074.73
2019-03-03T15:14:12.202Z,100073.78
2019-03-03T15:16:45.452Z,100072.02
2019-03-03T15:19:18.712Z,100061.99
2019-03-03T15:21:51.951Z,100055.88
2019-03-03T15:24:25.258Z,100043.23
2019-03-03T15:26:58.511Z,100049.28
2019-03-03T15:29:31.746Z,100054.89
2019-03-03T15:32:05.012Z,100045.45
2019-03-03T15:34:38.546Z,100047.58
2019-03-03T15:37:11.790Z,100043.16
2019-03-03T15:39:45.041Z,100042.37
2019-03-03T15:42:18.286Z,100036.44
2019-03-03T15:44:51.531Z,100036.03
2019-03-03T15:47:24.782Z,100039.11
2019-03-03T15:49:58.009Z,100029.30
2019-03-03T15:52:31.258Z,100029.89
2019-03-03T15:55:09.945Z,100028.58
2019-03-03T15:57:43.196Z,100023.42
2019-03-03T16:00:30.787Z,100017.30
2019-03-03T16:03:04.112Z,100011.70
2019-03-03T16:05:37.348Z,100010.84
2019-03-03T16:08:10.603Z,100001.22
2019-03-03T16:10:43.848Z,100009.03
2019-03-03T16:13:17.112Z,100001.33
2019-03-03T16:15:54.404Z,99996.52
2019-03-03T16:18:27.658Z,99999.63
2019-03-03T16:21:00.896Z,99993.23
2019-03-03T16:23:34.133Z,99991.20
2019-03-03T16:26:07.356Z,99984.38
2019-03-03T16:28:40.603Z,99986.72
2019-03-03T16:31:13.835Z,99979.86
2019-03-03T16:33:47.075Z,99982.52
2019-03-03T16:36:20.314Z,99981.56
2019-03-03T16:38:53.571Z,99980.25
2019-03-03T16:41:26.806Z,99977.03
2019-03-03T16:44:00.048Z,99972.89
2019-03-03T16:46:33.297Z,99961.91
2019-03-03T16:49:06.549Z,99958.33
2019-03-03T16:51:39.772Z,99955.16
2019-03-03T16:54:13.029Z,99945.59
2019-03-03T16:56:46.255Z,99949.84
2019-03-03T16:59:19.514Z,99940.56
2019-03-03T17:01:52.748Z,99933.05
2019-03-03T17:04:26.008Z,99925.44
2019-03-03T17:06:59.252Z,99931.77
2019-03-03T17:09:32.507Z,99926.49
2019-03-03T17:12:05.751Z,99924.79
2019-03-03T17:14:39.003Z,99916.59
2019-03-03T17:17:12.240Z,99905.04
2019-03-03T17:19:45.511Z,99898.41
2019-03-03T17:22:18.743Z,99890.14
2019-03-03T17:24:51.994Z,99888.30
2019-03-03T17:27:25.221Z,99886.73
2019-03-03T17:29:58.469Z,99876.77
2019-03-03T17:32:31.716Z,99877.98
2019-03-03T17:35:05.593Z,99873.63
2019-03-03T17:37:38.824Z,99868.86
2019-03-03T17:40:17.081Z,99868.41
2019-03-03T17:42:50.280Z,99871.30
2019-03-03T17:45:23.653Z,99871.02
2019-03-03T17:47:56.905Z,99865.89
2019-03-03T17:50:30.519Z,99856.83
2019-03-03T17:53:03.744Z,99851.27
2019-03-03T17:55:36.989Z,99846.06
2019-03-03T17:58:10.808Z,99840.00
2019-03-03T18:00:44.048Z,99846.56
2019-03-03T18:03:17.298Z,99832.30
2019-03-03T18:05:50.535Z,99837.84
2019-03-03T18:08:23.764Z,99830.83
2019-03-03T18:10:57.003Z,99821.19
2019-03-03T18:13:30.234Z,99813.38
2019-03-03T18:16:03.477Z,99815.19
2019-03-03T18:18:37.685Z,99804.88
2019-03-03T18:21:10.928Z,99808.91
2019-03-03T18:23:44.168Z,99801.29
2019-03-03T18:26:17.420Z,99795.80
2019-03-03T18:28:50.648Z,99790.41
2019-03-03T18:31:23.895Z,99784.22
2019-03-03T18:33:57.127Z,99782.26
2019-03-03T18:36:30.371Z,99766.86
2019-03-03T18:39:05.141Z,99768.30
2019-03-03T18:41:39.452Z,99758.02
2019-03-03T18:44:12.675Z,99758.13
2019-03-03T18:46:45.939Z,99743.88
2019-03-03T18:49:20.146Z,99734.82
2019-03-03T18:51:53.390Z,99734.45
2019-03-03T18:54:26.640Z,99724.59
2019-03-03T18:56:59.879Z,99719.64
2019-03-03T18:59:33.102Z,99715.82
2019-03-03T19:02:06.637Z,99713.30
2019-03-03T19:04:39.985Z,99705.20
2019-03-03T19:07:13.184Z,99698.38
2019-03-03T19:09:46.406Z,99700.25
2019-03-03T19:12:19.650Z,99695.13
2019-03-03T19:14:52.875Z,99688.27
2019-03-03T19:17:27.081Z,99690.95
2019-03-03T19:20:00.313Z,99675.86
2019-03-03T19:22:33.547Z,99679.36
2019-03-03T19:25:09.315Z,99670.81
2019-03-03T19:27:42.548Z,99667.33
2019-03-03T19:30:21.027Z,99663.55
2019-03-03T19:33:15.617Z,99653.59
2019-03-03T19:35:48.846Z,99651.55
2019-03-03T19:38:22.090Z,99654.17
2019-03-03T19:40:55.316Z,99657.34
2019-03-03T19:43:30.617Z,99666.84
2019-03-03T19:46:06.860Z,99659.03
2019-03-03T19:48:40.097Z,99650.78
2019-03-03T19:51:13.350Z,99639.58
2019-03-03T19:53:46.582Z,99643.94
2019-03-03T19:56:19.814Z,99627.03
2019-03-03T19:58:53.054Z,99628.73
2019-03-03T20:01:26.281Z,99637.44
2019-03-03T20:03:59.515Z,99624.43
2019-03-03T20:06:32.743Z,99609.73
2019-03-03T20:09:06.452Z,99599.36
2019-03-03T20:11:41.151Z,99604.16
2019-03-03T20:14:14.390Z,99604.22
2019-03-03T20:16:47.623Z,99600.26
2019-03-03T20:19:20.879Z,99599.86
2019-03-03T20:21:54.115Z,99587.31
2019-03-03T20:24:27.363Z,99589.91
2019-03-03T20:27:00.598Z,99588.22
2019-03-03T20:29:33.838Z,99579.56
2019-03-03T20:32:07.065Z,99588.22
2019-03-03T20:34:41.724Z,99588.33
2019-03-03T20:37:18.042Z,99585.73
2019-03-03T20:39:51.285Z,99577.92
2019-03-03T20:42:24.530Z,99569.70
2019-03-03T20:44:58.170Z,99571.91
2019-03-03T20:47:31.407Z,99552.72
2019-03-03T20:50:11.006Z,99551.81
2019-03-03T20:52:44.226Z,99560.52
2019-03-03T20:55:21.470Z,99547.52
2019-03-03T20:57:54.701Z,99561.42
2019-03-03T21:00:32.424Z,99552.58
2019-03-03T21:03:05.654Z,99544.72
2019-03-03T21:05:38.895Z,99538.72
2019-03-03T21:08:12.117Z,99523.58
2019-03-03T21:10:45.367Z,99523.52
2019-03-03T21:13:18.600Z,99520.02
2019-03-03T21:15:51.835Z,99520.41
2019-03-03T21:18:25.085Z,99502.92
2019-03-03T21:20:58.319Z,99505.91
2019-03-03T21:23:31.561Z,99508.91
2019-03-03T21:26:04.792Z,99503.20
2019-03-03T21:28:38.028Z,99503.98
2019-03-03T21:31:11.305Z,99510.02
2019-03-03T21:33:44.770Z,99498.11
2019-03-03T21:36:18.026Z,99496.23
2019-03-03T21:38:51.259Z,99488.23
2019-03-03T21:41:24.515Z,99482.36
2019-03-03T21:43:57.740Z,99458.83
2019-03-03T21:46:30.998Z,99460.64
2019-03-03T21:49:04.244Z,99447.34
2019-03-03T21:51:38.448Z,99439.14
2019-03-03T21:54:11.685Z,99430.48
2019-03-03T21:56:44.946Z,99423.92
2019-03-03T21:59:18.171Z,99423.08
2019-03-03T22:01:51.412Z,99421.84
2019-03-03T22:04:24.650Z,99401.55
2019-03-03T22:06:57.902Z,99408.14
2019-03-03T22:09:31.135Z,99389.54
2019-03-03T22:12:04.385Z,99382.64
2019-03-03T22:14:37.608Z,99374.00
2019-03-03T22:17:10.847Z,99369.37
2019-03-03T22:19:44.077Z,99363.57
2019-03-03T22:22:17.321Z,99369.80
2019-03-03T22:24:50.554Z,99360.99
2019-03-03T22:27:23.785Z,99375.30
2019-03-03T22:29:57.013Z,99366.26
2019-03-03T22:32:30.259Z,99375.87
2019-03-03T22:35:05.232Z,99368.47
2019-03-03T22:37:38.484Z,99377.11
2019-03-03T22:40:19.641Z,99371.45
2019-03-03T22:42:52.886Z,99354.62
2019-03-03T22:45:26.118Z,99354.62
2019-03-03T22:47:59.351Z,99346.45
2019-03-03T22:50:32.581Z,99330.52
2019-03-03T22:53:05.824Z,99320.52
2019-03-03T22:55:40.485Z,99324.41
2019-03-03T22:58:13.883Z,99317.13
2019-03-03T23:00:52.844Z,99314.14
2019-03-03T23:03:38.820Z,99317.97
2019-03-03T23:06:23.601Z,99298.56
2019-03-03T23:09:11.957Z,99300.31
2019-03-03T23:12:08.240Z,99310.45
2019-03-03T23:15:02.715Z,99316.27
2019-03-03T23:18:00.284Z,99302.60
2019-03-03T23:20:53.234Z,99293.33
2019-03-03T23:23:50.632Z,99293.55
2019-03-03T23:26:23.876Z,99295.45
2019-03-03T23:28:58.167Z,99307.30
2019-03-03T23:31:31.412Z,99300.89
2019-03-03T23:34:04.649Z,99299.31
2019-03-03T23:36:37.890Z,99308.61
2019-03-03T23:39:11.116Z,99288.34
2019-03-03T23:41:44.370Z,99280.70
2019-03-03T23:44:17.599Z,99278.55
2019-03-03T23:46:50.856Z,99269.16
2019-03-03T23:49:24.085Z,99270.06
2019-03-03T23:51:57.348Z,99259.34
2019-03-03T23:54:30.579Z,99253.36
2019-03-03T23:57:03.834Z,99239.55
2019-03-03T23:59:37.059Z,99232.27
